Aérodrome :
LOGIN :

S'inscrire | Disclaimer

   EN    FR    IT 

 










Légende :    VFR   VFR Marginal   IFR   IFR Intensif   IFR Très Intensif
Visi : 
Plafond : 
>= 8 km
>= 3000ft
5 à 8 km
1000 à 3000 ft
1500m à 5 km
500 à 1000 ft
800 à 1500m
200 à 500 ft
< 800m
< 200 ft
Symboles :   Orages  Brouillard  Fortes neiges  Fortes précipitations  Vent > 20 kt
SIGMETs :   Divers  Orages  Givrage  Turbulence  Onde Orograph.  Cendres Volcan.






- Altitude de l'aérodrome : 885 ft
- Code IATA : BAS


LFSB - Bale-Mulhouse

DERNIER METAR :
  • 210230Z VRB02KT 2800 -RA BR FEW050 BKN090 14/13 Q1014 NOSIG

METARs EXPIRÉS :
  • 210200Z AUTO 18003KT 150V220 4200 RA BR BKN049/// OVC100/// ///TCU 14/13 Q1015 TEMPO BKN040 BECMG 9999 NSW
  • 210130Z AUTO 23002KT 5000 BR BKN052/// BKN072/// OVC140/// 14/13 Q1014 NOSIG
  • 210100Z AUTO 09005KT 6000 -RA NCD 14/13 Q1014 TEMPO 4000 BR BKN005
  • 210030Z AUTO 11004KT 5000 RA BR ///TCU 14/13 Q1014 TEMPO NSW BKN040
  • 210000Z AUTO 28005KT 250V320 9999 -RA FEW036/// OVC110/// ///TCU 14/13 Q1013 TEMPO 4000 BR BKN005

TAF AMD TAF LFSB
Valide du 21 à 01h jusqu'au 22 à 00h UTC


210153Z 2101/2124 VRB03KT 9999 SCT050 BKN080
TEMPO 2101/2108 -RA BKN040
TEMPO 2101/2105 2500 BR
BECMG 2109/2111 29006KT SCT013
TEMPO 2114/2124 -RA
PROB30
TEMPO 2121/2124 4000 RA BKN006
Météo : +33 3 89 90 31 11



MET'MAP, la Météo Aéronautique d'un coup d'oeil ! - Copyright ORBIFLY Décembre 2007 - Disclaimer

ORBIFLY MET'MAP TEAM :

Programmation & Développement : Alexandra Zaïnal
Conception & Développement : Baudouin d'Aumeries
Co-Programmation & Développement : Marc-Olivier Méhu
Soutien technique & logistique : Manuel Goepfert

Contact : metmap@orbifly.com




SOURCES & CREDITS :

   NOAA